Time;durP1;ratioP1;P1;durP2;ratioP2;P2;SDS_P1;SDS_P2;PMS_P1;PMS_P2;Temp;Humidity;BMP_temperature;BMP_pressure;BME280_temperature;BME280_humidity;BME280_pressure;Samples;Min_cycle;Max_cycle;Signal;HPM_P1;HPM_P2
2023/04/13 00:04:38;;;;;;;0.70;0.30;;;;;;;8.39;74.25;98982.19;10220215;28;20056;-65
2023/04/13 00:09:40;;;;;;;1.85;0.40;;;;;;;8.41;74.21;98980.19;10219383;28;20521;-66
2023/04/13 00:14:42;;;;;;;1.20;0.40;;;;;;;8.42;74.09;98976.47;10224375;28;20051;-65
2023/04/13 00:19:46;;;;;;;0.52;0.20;;;;;;;8.38;74.61;98969.03;10220837;28;20059;-66
2023/04/13 00:24:48;;;;;;;2.78;0.30;;;;;;;8.33;74.71;98965.06;10219157;28;20095;-65
2023/04/13 00:29:50;;;;;;;1.27;0.35;;;;;;;8.28;74.48;98964.00;10220437;28;20048;-65
2023/04/13 00:34:52;;;;;;;0.35;0.30;;;;;;;8.26;74.82;98953.50;10216484;28;20043;-66
2023/04/13 00:39:54;;;;;;;0.93;0.20;;;;;;;8.41;74.00;98963.25;10217370;28;20122;-65
2023/04/13 00:44:55;;;;;;;1.58;0.32;;;;;;;8.45;73.80;98953.84;10218921;28;20056;-65
2023/04/13 00:50:00;;;;;;;1.27;0.30;;;;;;;8.38;73.45;98948.41;10221010;28;20147;-65
2023/04/13 00:55:01;;;;;;;0.88;0.30;;;;;;;8.36;73.31;98953.13;10217703;28;20047;-65
2023/04/13 01:00:11;;;;;;;1.95;0.38;;;;;;;8.25;73.82;98962.53;10217482;28;20615;-65
2023/04/13 01:05:15;;;;;;;0.80;0.43;;;;;;;8.15;74.33;98967.41;10217976;28;20102;-65
2023/04/13 01:10:35;;;;;;;0.70;0.35;;;;;;;8.08;73.41;98966.53;10216348;28;20066;-65
2023/04/13 01:15:56;;;;;;;1.58;0.50;;;;;;;7.98;73.25;98968.69;10220409;28;20081;-66
2023/04/13 01:20:59;;;;;;;1.38;0.30;;;;;;;7.92;73.45;98970.31;10222078;28;20043;-65
2023/04/13 01:26:07;;;;;;;3.25;0.60;;;;;;;7.79;73.24;98973.69;10221907;28;20899;-65
2023/04/13 01:31:12;;;;;;;2.85;0.70;;;;;;;7.67;74.07;98959.19;10215653;28;20427;-65
2023/04/13 01:36:15;;;;;;;0.85;0.60;;;;;;;7.62;73.34;98959.78;10221204;28;20789;-65
2023/04/13 01:41:17;;;;;;;1.88;0.40;;;;;;;7.55;73.77;98956.19;10224042;28;20059;-65
2023/04/13 01:46:25;;;;;;;0.73;0.30;;;;;;;7.48;73.42;98963.31;10222165;28;20503;-65
2023/04/13 01:51:31;;;;;;;;;;;;;;;7.39;74.38;98953.78;10218261;28;20044;-65
2023/04/13 01:56:33;;;;;;;3.00;0.50;;;;;;;7.27;74.54;98966.81;10217350;28;19978;-65
2023/04/13 02:01:36;;;;;;;1.85;0.25;;;;;;;7.22;73.83;98974.56;10215858;28;20459;-66
2023/04/13 02:06:38;;;;;;;2.03;0.30;;;;;;;7.23;74.88;98973.56;10217965;28;20055;-65
2023/04/13 02:11:39;;;;;;;4.97;2.65;;;;;;;7.30;74.71;98967.25;10217830;28;20613;-65
2023/04/13 02:16:41;;;;;;;1.55;0.20;;;;;;;7.41;75.19;98963.25;10218860;28;20114;-65
2023/04/13 02:21:42;;;;;;;1.35;0.10;;;;;;;7.47;74.23;98967.84;10217244;28;20135;-65
2023/04/13 02:26:44;;;;;;;0.55;0.20;;;;;;;7.53;75.30;98971.59;10215761;28;20047;-65
2023/04/13 02:31:45;;;;;;;1.58;0.20;;;;;;;7.60;75.30;98968.97;10217580;28;20051;-66
2023/04/13 02:36:47;;;;;;;1.83;0.20;;;;;;;7.74;74.82;98955.56;10214383;28;20079;-65
2023/04/13 02:41:50;;;;;;;0.55;0.20;;;;;;;7.89;74.99;98960.00;10217061;28;20047;-65
2023/04/13 02:46:51;;;;;;;0.88;0.20;;;;;;;8.05;74.49;98967.72;10217355;28;20047;-65
2023/04/13 02:51:52;;;;;;;0.90;0.20;;;;;;;8.21;74.32;98957.75;10214964;28;20060;-65
2023/04/13 02:56:54;;;;;;;0.70;0.20;;;;;;;8.31;74.08;98964.44;10213489;28;20047;-65
2023/04/13 03:01:57;;;;;;;3.03;0.20;;;;;;;8.44;74.23;98960.22;10215216;28;20058;-65
2023/04/13 03:06:59;;;;;;;1.23;0.20;;;;;;;8.60;73.87;98967.13;10215304;28;20075;-65
2023/04/13 03:12:01;;;;;;;5.57;0.10;;;;;;;8.72;73.36;98954.81;10216526;28;20051;-65
2023/04/13 03:17:03;;;;;;;0.73;0.10;;;;;;;8.83;73.54;98946.22;10219754;28;20574;-65
2023/04/13 03:22:04;;;;;;;1.58;0.15;;;;;;;8.89;73.16;98942.75;10225464;28;20563;-65
2023/04/13 03:27:06;;;;;;;2.58;0.35;;;;;;;8.99;73.21;98941.53;10226860;28;20106;-65
2023/04/13 03:32:07;;;;;;;3.80;0.20;;;;;;;9.06;73.02;98950.41;10221986;28;20363;-65
2023/04/13 03:37:10;;;;;;;2.22;0.30;;;;;;;9.14;73.09;98944.88;10224779;28;20510;-65
2023/04/13 03:42:11;;;;;;;1.63;0.32;;;;;;;9.15;73.16;98943.03;10220292;28;20523;-65
2023/04/13 03:47:13;;;;;;;5.15;0.40;;;;;;;9.13;72.67;98956.63;10227588;28;20122;-65
2023/04/13 03:52:15;;;;;;;3.58;0.30;;;;;;;9.14;72.48;98955.59;10227085;28;20146;-65
2023/04/13 03:57:16;;;;;;;2.63;0.20;;;;;;;9.25;72.33;98943.47;10238241;28;20886;-65
2023/04/13 04:02:18;;;;;;;0.93;0.35;;;;;;;9.32;72.05;98950.50;10222937;28;20471;-65
2023/04/13 04:07:22;;;;;;;2.42;0.55;;;;;;;9.34;71.57;98944.94;10228632;28;20056;-65
2023/04/13 04:12:23;;;;;;;2.78;0.30;;;;;;;9.42;71.65;98944.75;10221950;28;20418;-65
2023/04/13 04:17:25;;;;;;;2.40;0.32;;;;;;;9.55;71.06;98948.50;10220075;28;20376;-66
2023/04/13 04:22:28;;;;;;;2.85;0.43;;;;;;;9.65;70.86;98957.78;10221137;28;20059;-65
2023/04/13 04:27:36;;;;;;;1.20;0.30;;;;;;;9.73;70.92;98954.94;10223774;28;20057;-66
2023/04/13 04:32:39;;;;;;;4.47;0.93;;;;;;;9.86;70.39;98972.06;10223687;28;20058;-65
2023/04/13 04:37:40;;;;;;;8.60;0.30;;;;;;;9.98;70.45;98972.28;10221176;28;20146;-67
2023/04/13 04:42:42;;;;;;;2.63;0.20;;;;;;;10.02;70.63;98982.38;10226577;28;20082;-68
2023/04/13 04:47:43;;;;;;;1.55;0.30;;;;;;;10.03;70.42;98989.41;10218227;28;20738;-68
2023/04/13 04:52:45;;;;;;;2.13;0.20;;;;;;;10.10;70.27;98990.22;10225678;28;20051;-68
2023/04/13 04:57:48;;;;;;;4.05;0.75;;;;;;;10.13;70.13;99002.44;10230498;28;20039;-68
2023/04/13 05:02:50;;;;;;;4.68;1.00;;;;;;;10.09;70.20;98998.47;10199102;28;20071;-67
2023/04/13 05:07:51;;;;;;;1.40;0.28;;;;;;;10.13;70.08;99007.81;10203478;28;20115;-67
2023/04/13 05:12:55;;;;;;;6.93;0.45;;;;;;;10.14;69.85;99001.38;10194830;28;20051;-67
2023/04/13 05:17:57;;;;;;;4.00;0.52;;;;;;;10.13;69.71;99005.13;10195303;28;20115;-68
2023/04/13 05:22:59;;;;;;;3.28;0.20;;;;;;;10.19;69.41;99000.75;10193369;28;20700;-67
2023/04/13 05:28:01;;;;;;;4.07;0.30;;;;;;;10.29;69.10;99017.31;10195885;28;20056;-67
2023/04/13 05:33:05;;;;;;;4.80;0.30;;;;;;;10.23;68.76;99004.69;10196329;28;20542;-67
2023/04/13 05:38:07;;;;;;;2.47;0.70;;;;;;;10.26;68.92;99015.03;10201376;28;20103;-67
2023/04/13 05:43:08;;;;;;;3.85;0.47;;;;;;;10.31;68.38;99009.91;10196942;28;20111;-67
2023/04/13 05:48:10;;;;;;;3.88;1.15;;;;;;;10.29;68.43;99014.63;10216384;28;20110;-68
2023/04/13 05:53:11;;;;;;;2.92;0.75;;;;;;;10.37;68.31;99025.19;10214060;28;20067;-67
2023/04/13 05:58:13;;;;;;;5.38;0.57;;;;;;;10.40;68.31;99035.50;10215377;28;20108;-66
2023/04/13 06:03:14;;;;;;;5.15;0.35;;;;;;;10.41;68.44;99037.16;10209351;28;20522;-67
2023/04/13 06:08:16;;;;;;;7.00;0.30;;;;;;;10.41;68.56;99036.34;10223416;28;20466;-65
2023/04/13 06:13:18;;;;;;;5.65;0.40;;;;;;;10.48;68.45;99055.94;10212541;28;20846;-68
2023/04/13 06:18:19;;;;;;;6.03;0.40;;;;;;;10.46;68.25;99061.53;10212823;28;20091;-66
2023/04/13 06:23:21;;;;;;;3.20;0.30;;;;;;;10.44;68.29;99065.47;10215284;28;20145;-66
2023/04/13 06:28:27;;;;;;;4.50;0.65;;;;;;;10.39;68.30;99087.56;10216380;28;20058;-67
2023/04/13 06:33:30;;;;;;;5.67;0.40;;;;;;;10.36;68.63;99095.22;10213027;28;20078;-68
2023/04/13 06:38:31;;;;;;;4.57;0.75;;;;;;;10.31;68.50;99080.53;10207341;28;20060;-67
2023/04/13 06:43:33;;;;;;;3.97;0.90;;;;;;;10.38;68.63;99093.97;10212236;28;20063;-66
2023/04/13 06:48:34;;;;;;;2.67;0.47;;;;;;;10.44;68.69;99085.09;10215571;28;20094;-67
2023/04/13 06:53:36;;;;;;;7.75;0.52;;;;;;;10.39;68.53;99090.25;10217466;28;20055;-68
2023/04/13 06:58:37;;;;;;;5.22;0.50;;;;;;;10.41;68.04;99092.75;10221053;28;20079;-67
2023/04/13 07:03:39;;;;;;;5.20;0.40;;;;;;;10.45;68.07;99104.75;10227329;28;20082;-67
2023/04/13 07:08:40;;;;;;;3.15;0.30;;;;;;;10.51;67.87;99109.28;10227144;28;20134;-67
2023/04/13 07:13:42;;;;;;;11.13;0.50;;;;;;;10.52;67.86;99117.16;10223165;28;20059;-67
2023/04/13 07:18:43;;;;;;;8.02;0.70;;;;;;;10.65;67.50;99115.47;10225170;28;20075;-67
2023/04/13 07:23:45;;;;;;;5.10;0.85;;;;;;;10.64;67.74;99121.88;10228847;28;20189;-67
2023/04/13 07:28:46;;;;;;;4.38;0.68;;;;;;;10.58;68.14;99123.53;10226620;28;20058;-66
2023/04/13 07:33:48;;;;;;;3.33;0.45;;;;;;;10.47;68.31;99132.22;10221330;28;20048;-68
2023/04/13 07:38:49;;;;;;;8.35;0.50;;;;;;;10.52;68.18;99140.47;10212698;28;20052;-68
2023/04/13 07:43:50;;;;;;;8.00;0.60;;;;;;;10.52;68.35;99148.53;10224417;28;20075;-67
2023/04/13 07:48:52;;;;;;;6.53;0.95;;;;;;;10.61;68.26;99146.50;10226473;28;20098;-69
2023/04/13 07:53:54;;;;;;;3.83;0.40;;;;;;;10.59;68.39;99151.25;10222552;28;20099;-67
2023/04/13 07:58:56;;;;;;;4.45;0.60;;;;;;;10.64;68.64;99156.81;10237163;28;20063;-66
2023/04/13 08:03:57;;;;;;;2.42;0.40;;;;;;;10.82;68.23;99165.09;10229923;28;20101;-66
2023/04/13 08:08:59;;;;;;;2.42;0.43;;;;;;;10.91;68.43;99163.84;10230731;28;20047;-68
2023/04/13 08:14:01;;;;;;;4.47;1.58;;;;;;;10.86;68.30;99163.66;10205684;28;20155;-67
2023/04/13 08:19:02;;;;;;;7.47;0.43;;;;;;;10.91;68.08;99171.91;10222792;28;20428;-68
2023/04/13 08:24:05;;;;;;;3.70;0.30;;;;;;;11.00;68.19;99169.84;10218262;28;20055;-68
2023/04/13 08:29:06;;;;;;;2.28;0.85;;;;;;;10.94;68.03;99176.06;10219812;28;20082;-67
2023/04/13 08:34:10;;;;;;;4.15;0.40;;;;;;;10.77;68.30;99181.03;10216087;28;20059;-66
2023/04/13 08:39:12;;;;;;;3.17;0.30;;;;;;;10.75;68.92;99179.56;10223737;28;20475;-66
2023/04/13 08:44:14;;;;;;;2.80;0.32;;;;;;;10.71;68.96;99189.91;10220563;28;20047;-69
2023/04/13 08:49:16;;;;;;;5.47;0.75;;;;;;;10.70;68.86;99177.50;10225972;28;20059;-67
2023/04/13 08:54:18;;;;;;;4.53;0.38;;;;;;;10.83;68.65;99180.19;10223778;28;20527;-67
2023/04/13 08:59:21;;;;;;;5.55;0.70;;;;;;;11.06;68.22;99187.84;10213864;28;20949;-68
2023/04/13 09:04:30;;;;;;;3.75;0.30;;;;;;;11.24;67.98;99181.81;10228844;28;20499;-68
2023/04/13 09:09:36;;;;;;;2.35;0.50;;;;;;;11.23;68.00;99201.69;10215455;28;20052;-67
2023/04/13 09:14:39;;;;;;;2.50;0.77;;;;;;;11.58;68.03;99201.41;10215744;28;20048;-68
2023/04/13 09:19:41;;;;;;;3.28;0.57;;;;;;;11.60;67.72;99215.50;10213004;28;20064;-67
2023/04/13 09:24:43;;;;;;;6.00;0.50;;;;;;;11.75;67.07;99219.78;10216542;28;20087;-67
2023/04/13 09:29:48;;;;;;;4.53;0.30;;;;;;;11.71;67.11;99228.31;10223644;28;20106;-69
2023/04/13 09:35:19;;;;;;;2.65;0.30;;;;;;;11.45;67.15;99228.34;10217943;28;20057;-69
2023/04/13 09:40:21;;;;;;;2.88;0.60;;;;;;;11.32;67.23;99238.09;10216051;28;20056;-67
2023/04/13 09:45:22;;;;;;;3.05;0.40;;;;;;;11.46;66.88;99238.09;10220601;28;20080;-68
2023/04/13 09:50:28;;;;;;;3.90;0.30;;;;;;;11.76;67.29;99237.63;10222369;28;20048;-67
2023/04/13 09:55:31;;;;;;;1.85;0.10;;;;;;;12.24;66.99;99232.72;10212742;28;20047;-67
2023/04/13 10:00:34;;;;;;;4.78;0.40;;;;;;;12.19;65.70;99227.13;10220274;28;20059;-68
2023/04/13 10:05:36;;;;;;;3.33;0.30;;;;;;;12.63;65.71;99233.50;10214397;28;20142;-68
2023/04/13 10:11:00;;;;;;;2.67;0.45;;;;;;;13.02;65.29;99230.78;10218095;28;20062;-67
2023/04/13 10:16:35;;;;;;;2.30;0.20;;;;;;;12.96;64.48;99221.69;10212420;28;20059;-66
2023/04/13 10:21:39;;;;;;;1.95;0.30;;;;;;;13.22;64.60;99231.41;10213830;28;20611;-66
2023/04/13 10:26:43;;;;;;;6.88;0.93;;;;;;;13.42;63.62;99236.66;10216747;28;20090;-67
2023/04/13 10:31:47;;;;;;;1.15;0.20;;;;;;;13.68;63.48;99227.50;10217221;28;20098;-67
2023/04/13 10:36:50;;;;;;;0.88;0.17;;;;;;;13.99;62.50;99227.56;10218965;28;20062;-66
2023/04/13 10:42:05;;;;;;;1.40;0.38;;;;;;;14.33;61.34;99217.97;10213813;28;20070;-65
2023/04/13 10:47:07;;;;;;;1.10;0.20;;;;;;;14.35;61.08;99220.47;10210349;28;20146;-67
2023/04/13 10:52:10;;;;;;;1.15;0.13;;;;;;;14.34;61.09;99214.22;10215385;28;20134;-63
2023/04/13 10:57:12;;;;;;;1.95;0.15;;;;;;;14.56;60.74;99211.03;10218650;28;20642;-66
2023/04/13 11:02:15;;;;;;;3.38;0.60;;;;;;;14.28;60.21;99215.16;10219449;28;20676;-66
2023/04/13 11:07:20;;;;;;;0.77;0.20;;;;;;;14.95;59.54;99211.47;10214257;28;20054;-60
2023/04/13 11:12:22;;;;;;;2.25;0.20;;;;;;;15.19;59.61;99205.06;10215518;28;20067;-61
2023/04/13 11:17:23;;;;;;;0.20;0.10;;;;;;;15.06;59.25;99208.78;10227544;28;20075;-60
2023/04/13 11:22:27;;;;;;;0.85;0.10;;;;;;;15.06;59.20;99214.22;10230953;28;20062;-60
2023/04/13 11:27:28;;;;;;;1.38;0.10;;;;;;;14.77;57.86;99215.94;10220842;28;20047;-66
2023/04/13 11:32:33;;;;;;;1.38;0.20;;;;;;;15.15;58.28;99222.00;10219386;28;20111;-67
2023/04/13 11:37:43;;;;;;;2.42;0.10;;;;;;;15.07;57.35;99209.66;10226405;28;20500;-67
2023/04/13 11:42:46;;;;;;;0.68;0.20;;;;;;;15.25;57.05;99201.41;10223756;28;20344;-68
2023/04/13 11:47:49;;;;;;;1.17;0.20;;;;;;;15.14;57.17;99196.81;10221399;28;20039;-69
2023/04/13 11:52:55;;;;;;;1.65;0.20;;;;;;;15.07;56.97;99228.59;10224316;28;20067;-68
2023/04/13 11:57:57;;;;;;;0.60;0.00;;;;;;;14.01;56.77;99234.38;10227925;28;20110;-68
2023/04/13 12:03:00;;;;;;;0.57;0.10;;;;;;;13.69;58.71;99248.03;10219662;28;20103;-70
2023/04/13 12:08:04;;;;;;;1.85;0.10;;;;;;;13.47;59.52;99242.25;10221061;28;20062;-67
2023/04/13 12:13:12;;;;;;;0.75;0.00;;;;;;;13.45;60.33;99235.41;10226466;28;20499;-68
2023/04/13 12:18:18;;;;;;;2.25;0.10;;;;;;;13.93;59.75;99215.78;10227454;28;20036;-69
2023/04/13 12:23:28;;;;;;;0.20;0.10;;;;;;;14.46;59.67;99203.47;10236074;28;20051;-69
2023/04/13 12:28:34;;;;;;;0.50;0.10;;;;;;;15.27;58.43;99204.69;10220325;28;20058;-68
2023/04/13 12:33:35;;;;;;;0.90;0.20;;;;;;;16.09;57.54;99208.38;10222798;28;20073;-69
2023/04/13 12:38:37;;;;;;;1.48;0.10;;;;;;;16.15;57.58;99212.88;10231883;28;20035;-70
2023/04/13 12:43:39;;;;;;;0.40;0.10;;;;;;;15.94;57.40;99217.03;10224052;28;20054;-68
2023/04/13 12:48:41;;;;;;;0.47;0.10;;;;;;;15.29;55.76;99242.38;10217852;28;20047;-69
2023/04/13 12:53:43;;;;;;;2.90;0.55;;;;;;;14.66;57.29;99236.47;10220363;28;20055;-70
2023/04/13 12:58:44;;;;;;;0.95;0.10;;;;;;;14.29;59.32;99241.94;10230625;28;20058;-69
2023/04/13 13:03:45;;;;;;;0.68;0.20;;;;;;;14.16;59.44;99250.22;10243905;28;20099;-69
2023/04/13 13:08:49;;;;;;;1.08;0.20;;;;;;;14.13;59.24;99276.88;10222511;28;20051;-68
2023/04/13 13:13:51;;;;;;;0.05;0.00;;;;;;;13.27;58.04;99299.06;10217089;28;20071;-69
2023/04/13 13:18:52;;;;;;;0.15;0.00;;;;;;;11.74;62.32;99318.59;10217564;28;20110;-68
2023/04/13 13:23:54;;;;;;;0.43;0.00;;;;;;;10.45;67.44;99320.50;10215800;28;20048;-67
2023/04/13 13:28:55;;;;;;;0.10;0.00;;;;;;;10.08;68.60;99316.34;10215315;28;20055;-64
2023/04/13 13:33:56;;;;;;;0.93;0.00;;;;;;;9.91;69.68;99307.78;10211748;28;20051;-62
2023/04/13 13:38:58;;;;;;;0.43;0.32;;;;;;;9.86;70.29;99302.19;10214054;28;20079;-62
2023/04/13 13:44:00;;;;;;;0.05;0.00;;;;;;;9.90;70.66;99296.22;10213703;28;20054;-62
2023/04/13 13:49:02;;;;;;;0.43;0.00;;;;;;;10.25;70.53;99296.19;10212888;28;20142;-61
2023/04/13 13:54:03;;;;;;;0.00;0.00;;;;;;;10.31;71.13;99308.03;10214829;28;20051;-62
2023/04/13 13:59:05;;;;;;;0.00;0.00;;;;;;;10.62;71.62;99304.81;10213680;28;20118;-63
2023/04/13 14:04:06;;;;;;;0.20;0.05;;;;;;;10.84;72.17;99299.28;10211889;28;20150;-62
2023/04/13 14:09:08;;;;;;;0.83;0.20;;;;;;;11.21;72.00;99299.75;10179462;28;1019780;-61
2023/04/13 14:14:09;;;;;;;0.40;0.10;;;;;;;11.39;71.61;99289.19;10221109;28;20051;-62
2023/04/13 14:19:22;;;;;;;0.32;0.08;;;;;;;11.53;72.04;99292.72;10214217;28;20048;-62
2023/04/13 14:24:23;;;;;;;1.15;0.52;;;;;;;11.72;72.45;99304.50;10213531;28;20641;-62
2023/04/13 14:29:26;;;;;;;1.25;0.13;;;;;;;11.93;72.40;99316.09;10216336;28;20071;-65
2023/04/13 14:34:28;;;;;;;0.03;0.00;;;;;;;12.14;71.75;99315.00;10216486;28;20699;-65
2023/04/13 14:39:29;;;;;;;0.08;0.05;;;;;;;12.43;71.54;99319.88;10212575;28;20035;-65
2023/04/13 14:44:31;;;;;;;0.17;0.00;;;;;;;13.23;71.44;99308.66;10211106;28;20051;-66
2023/04/13 14:49:32;;;;;;;1.00;0.10;;;;;;;14.09;70.63;99304.34;10215878;28;20119;-68
2023/04/13 14:54:34;;;;;;;1.52;0.10;;;;;;;14.67;69.78;99304.91;10215596;28;20059;-69
2023/04/13 14:59:36;;;;;;;0.90;0.10;;;;;;;15.02;69.24;99312.34;10214469;28;20047;-69
2023/04/13 15:04:41;;;;;;;1.33;0.10;;;;;;;15.46;68.44;99318.31;10211716;28;20146;-68
2023/04/13 15:09:42;;;;;;;0.13;0.00;;;;;;;15.53;67.27;99332.59;10213565;28;20051;-67
2023/04/13 15:14:45;;;;;;;0.25;0.00;;;;;;;15.50;66.52;99340.34;10226884;28;20051;-67
2023/04/13 15:19:47;;;;;;;0.30;0.03;;;;;;;15.24;65.37;99354.09;10233785;28;20091;-65
2023/04/13 15:24:48;;;;;;;0.68;0.10;;;;;;;14.61;65.53;99355.38;10250511;28;20127;-65
2023/04/13 15:29:57;;;;;;;2.53;0.10;;;;;;;13.84;66.51;99354.91;10229080;28;20044;-67
2023/04/13 15:34:58;;;;;;;1.13;0.10;;;;;;;12.23;70.66;99354.97;10219805;28;20063;-60
2023/04/13 15:40:00;;;;;;;4.32;0.40;;;;;;;12.35;70.62;99344.38;10216710;28;20048;-59
2023/04/13 15:45:02;;;;;;;0.20;0.10;;;;;;;12.47;70.65;99349.94;10223993;28;20426;-60
2023/04/13 15:50:04;;;;;;;1.65;0.20;;;;;;;12.41;70.65;99359.69;10238985;28;20074;-62
2023/04/13 15:55:06;;;;;;;0.38;0.10;;;;;;;11.93;72.18;99367.25;10226804;28;20090;-60
2023/04/13 16:00:08;;;;;;;1.40;0.10;;;;;;;11.90;71.43;99363.94;10221991;28;20507;-61
2023/04/13 16:05:11;;;;;;;0.80;0.10;;;;;;;11.97;70.95;99372.03;10217568;28;20495;-62
2023/04/13 16:10:15;;;;;;;1.30;0.20;;;;;;;11.95;70.79;99371.41;10223169;28;20075;-62
2023/04/13 16:15:18;;;;;;;1.15;0.60;;;;;;;11.93;70.96;99386.09;10213852;28;20121;-62
2023/04/13 16:20:20;;;;;;;3.92;0.73;;;;;;;11.75;71.63;99392.94;10219157;28;20056;-62
2023/04/13 16:25:22;;;;;;;2.38;0.40;;;;;;;11.89;70.85;99405.41;10214268;28;20055;-62
2023/04/13 16:30:24;;;;;;;1.35;0.25;;;;;;;11.99;71.27;99404.16;10212825;28;20047;-63
2023/04/13 16:35:25;;;;;;;5.10;0.20;;;;;;;12.11;71.41;99399.78;10215560;28;20059;-64
2023/04/13 16:40:27;;;;;;;0.73;0.55;;;;;;;11.94;72.42;99401.25;10220673;28;20058;-61
2023/04/13 16:45:28;;;;;;;1.73;0.30;;;;;;;11.57;73.07;99408.88;10223499;28;20070;-64
2023/04/13 16:50:29;;;;;;;1.13;0.30;;;;;;;11.57;72.92;99409.72;10218747;28;20055;-64
2023/04/13 16:55:33;;;;;;;3.25;0.22;;;;;;;11.66;73.28;99396.88;10217000;28;20047;-65
2023/04/13 17:00:34;;;;;;;2.67;0.30;;;;;;;11.54;72.86;99412.00;10221304;28;20051;-67
2023/04/13 17:05:36;;;;;;;0.57;0.20;;;;;;;11.46;72.66;99419.22;10225813;28;20090;-67
2023/04/13 17:10:37;;;;;;;1.15;0.35;;;;;;;11.26;73.06;99427.25;10224842;28;20052;-67
2023/04/13 17:15:39;;;;;;;1.02;0.20;;;;;;;11.27;72.74;99431.59;10230810;28;20059;-66
2023/04/13 17:20:41;;;;;;;3.00;0.30;;;;;;;11.31;72.33;99438.25;10215915;28;20043;-67
2023/04/13 17:25:42;;;;;;;1.48;0.30;;;;;;;11.40;72.74;99454.19;10219766;28;20979;-66
2023/04/13 17:30:43;;;;;;;2.60;0.30;;;;;;;11.34;73.16;99455.00;10228154;28;20134;-66
2023/04/13 17:35:45;;;;;;;2.58;0.77;;;;;;;11.32;73.47;99469.47;10221140;28;20051;-68
2023/04/13 17:40:46;;;;;;;6.15;0.88;;;;;;;11.36;72.78;99477.97;10227289;28;20487;-64
2023/04/13 17:45:48;;;;;;;5.22;1.17;;;;;;;11.38;72.68;99473.22;10219836;28;20415;-65
2023/04/13 17:50:50;;;;;;;3.17;0.57;;;;;;;11.40;73.06;99484.63;10218869;28;20052;-65
2023/04/13 17:55:51;;;;;;;3.83;0.70;;;;;;;11.48;72.54;99476.34;10228946;28;20110;-66
2023/04/13 18:00:53;;;;;;;5.13;1.80;;;;;;;11.53;72.80;99481.13;10221844;28;20466;-66
2023/04/13 18:05:54;;;;;;;1.80;0.70;;;;;;;11.57;72.81;99482.38;10228634;28;20342;-68
2023/04/13 18:10:58;;;;;;;6.88;0.88;;;;;;;11.52;72.96;99479.47;10224971;28;20074;-65
2023/04/13 18:16:00;;;;;;;2.75;0.90;;;;;;;11.49;72.96;99491.47;10230405;28;20066;-67
2023/04/13 18:21:01;;;;;;;1.45;0.70;;;;;;;11.47;72.62;99503.47;10272755;28;20085;-65
2023/04/13 18:26:03;;;;;;;2.10;0.80;;;;;;;11.45;72.67;99502.84;10246438;28;20060;-66
2023/04/13 18:31:04;;;;;;;5.70;1.25;;;;;;;11.38;72.77;99504.69;10239113;28;20055;-66
2023/04/13 18:36:06;;;;;;;3.63;1.08;;;;;;;11.32;72.66;99500.94;10243568;28;20059;-67
2023/04/13 18:41:07;;;;;;;3.80;0.80;;;;;;;11.30;72.32;99517.28;10220146;28;20059;-66
2023/04/13 18:46:10;;;;;;;2.25;0.65;;;;;;;11.26;72.12;99532.16;10233027;28;20067;-67
2023/04/13 18:51:12;;;;;;;5.70;1.00;;;;;;;11.19;72.59;99536.69;10228120;28;20043;-66
2023/04/13 18:56:13;;;;;;;3.80;1.60;;;;;;;11.18;72.62;99543.09;10225321;28;20114;-70
2023/04/13 19:01:18;;;;;;;2.33;1.17;;;;;;;11.12;72.58;99557.34;10207026;28;20107;-68
2023/04/13 19:06:20;;;;;;;3.55;1.33;;;;;;;10.96;73.02;99563.03;10238336;28;20062;-66
2023/04/13 19:11:26;;;;;;;1.65;0.88;;;;;;;11.01;72.87;99563.28;10215647;28;20051;-69
2023/04/13 19:16:27;;;;;;;3.50;1.23;;;;;;;11.02;73.09;99567.63;10213779;28;20051;-68
2023/04/13 19:21:29;;;;;;;3.97;1.10;;;;;;;10.97;73.01;99562.03;10208903;28;20086;-69
2023/04/13 19:26:31;;;;;;;13.88;6.72;;;;;;;10.96;73.00;99557.66;10228333;28;20522;-70
2023/04/13 19:31:36;;;;;;;11.27;4.70;;;;;;;10.75;73.37;99553.22;10218801;28;20102;-68
2023/04/13 19:36:39;;;;;;;5.07;2.17;;;;;;;10.57;74.12;99559.09;10217905;28;20088;-67
2023/04/13 19:41:41;;;;;;;7.50;2.15;;;;;;;10.58;73.81;99560.72;10217864;28;20051;-69
2023/04/13 19:46:43;;;;;;;5.55;2.08;;;;;;;10.58;73.62;99555.34;10217086;28;20059;-69
2023/04/13 19:51:45;;;;;;;4.72;2.33;;;;;;;10.50;73.39;99553.63;10224250;28;20055;-67
2023/04/13 19:56:47;;;;;;;7.00;1.63;;;;;;;10.44;73.76;99560.63;10219444;28;20107;-68
2023/04/13 20:01:48;;;;;;;5.47;2.58;;;;;;;10.39;73.76;99552.34;10202578;28;20063;-67
2023/04/13 20:06:50;;;;;;;2.58;1.27;;;;;;;10.11;74.47;99553.09;10220756;28;20066;-68
2023/04/13 20:11:52;;;;;;;5.57;2.28;;;;;;;9.99;75.03;99561.84;10231331;28;20579;-69
2023/04/13 20:16:53;;;;;;;4.97;2.55;;;;;;;10.05;74.85;99556.56;10237760;28;20802;-68
2023/04/13 20:21:56;;;;;;;5.55;2.33;;;;;;;10.02;74.87;99564.97;10235950;28;20067;-68
2023/04/13 20:26:58;;;;;;;8.10;1.98;;;;;;;10.10;74.59;99556.78;10226701;28;20391;-68
2023/04/13 20:31:59;;;;;;;5.03;2.88;;;;;;;10.13;74.52;99552.91;10228346;28;20043;-67
2023/04/13 20:37:01;;;;;;;5.03;2.53;;;;;;;10.09;74.78;99549.78;10232244;28;20593;-69
2023/04/13 20:42:07;;;;;;;5.68;2.90;;;;;;;10.12;74.51;99561.97;10237368;28;20066;-66
2023/04/13 20:47:12;;;;;;;6.63;3.15;;;;;;;10.12;74.75;99556.59;10247439;28;20086;-67
2023/04/13 20:52:16;;;;;;;7.30;2.80;;;;;;;9.91;75.40;99560.13;10250145;28;20119;-69
2023/04/13 20:57:18;;;;;;;7.70;2.65;;;;;;;9.92;75.31;99567.16;10255711;28;20066;-67
2023/04/13 21:02:20;;;;;;;11.88;3.45;;;;;;;9.96;75.80;99568.44;10249028;28;20065;-67
2023/04/13 21:07:22;;;;;;;5.45;3.17;;;;;;;10.08;74.99;99571.44;10252726;28;20067;-67
2023/04/13 21:12:25;;;;;;;10.82;3.15;;;;;;;10.06;75.06;99568.13;10252230;28;20055;-67
2023/04/13 21:17:26;;;;;;;6.68;2.42;;;;;;;10.16;74.94;99565.13;10238724;28;20063;-67
2023/04/13 21:22:28;;;;;;;7.20;3.30;;;;;;;10.16;75.05;99568.63;10267537;28;20181;-67
2023/04/13 21:27:30;;;;;;;4.55;2.97;;;;;;;10.21;75.02;99558.16;10261701;28;20069;-67
2023/04/13 21:32:32;;;;;;;5.07;2.35;;;;;;;10.18;74.93;99569.25;10265290;28;20051;-67
2023/04/13 21:37:33;;;;;;;6.35;2.80;;;;;;;10.14;75.09;99573.34;10261419;28;20122;-67
2023/04/13 21:42:36;;;;;;;6.32;3.22;;;;;;;10.10;75.26;99580.97;10264987;28;20096;-67
2023/04/13 21:47:37;;;;;;;6.30;3.88;;;;;;;10.09;75.05;99568.56;10266750;28;20039;-66
2023/04/13 21:52:39;;;;;;;7.13;3.13;;;;;;;10.08;74.93;99574.13;10261517;28;20036;-66
2023/04/13 21:57:40;;;;;;;4.45;2.50;;;;;;;10.03;75.64;99574.72;10268425;28;20051;-67
2023/04/13 22:02:42;;;;;;;4.88;2.22;;;;;;;10.01;75.10;99576.75;10272140;28;20043;-67
2023/04/13 22:07:44;;;;;;;6.18;3.58;;;;;;;9.99;74.77;99577.97;10257432;28;20058;-66
2023/04/13 22:12:45;;;;;;;3.20;2.38;;;;;;;9.96;74.73;99579.19;10274373;28;20075;-68
2023/04/13 22:17:47;;;;;;;5.43;2.53;;;;;;;9.92;74.66;99578.72;10248779;28;20055;-69
2023/04/13 22:22:49;;;;;;;3.33;1.90;;;;;;;9.93;74.26;99583.09;10277100;28;20157;-68
2023/04/13 22:27:50;;;;;;;3.10;2.10;;;;;;;9.72;75.00;99586.56;10268236;28;20128;-66
2023/04/13 22:32:55;;;;;;;4.60;2.63;;;;;;;9.53;75.61;99584.47;10271831;28;20060;-67
2023/04/13 22:37:57;;;;;;;8.48;3.65;;;;;;;9.51;75.23;99581.16;10262006;28;20054;-66
2023/04/13 22:42:58;;;;;;;6.93;3.10;;;;;;;9.51;75.13;99590.03;10219528;28;20048;-64
2023/04/13 22:48:00;;;;;;;6.72;3.58;;;;;;;9.49;75.23;99599.28;10224447;28;20052;-66
2023/04/13 22:53:01;;;;;;;5.57;3.08;;;;;;;9.50;74.83;99606.34;10213763;28;20078;-66
2023/04/13 22:58:03;;;;;;;9.15;4.40;;;;;;;9.49;74.42;99618.06;10214258;28;20102;-66
2023/04/13 23:03:04;;;;;;;7.60;3.72;;;;;;;9.43;74.66;99611.59;10210886;28;20511;-67
2023/04/13 23:08:06;;;;;;;8.60;3.90;;;;;;;9.44;74.55;99607.91;10239044;28;20055;-67
2023/04/13 23:13:08;;;;;;;11.45;3.42;;;;;;;9.41;74.39;99619.00;10229474;28;20055;-66
2023/04/13 23:18:09;;;;;;;10.68;3.75;;;;;;;9.35;74.59;99625.13;10231542;28;20138;-66
2023/04/13 23:23:11;;;;;;;7.45;5.00;;;;;;;9.26;74.65;99632.44;10244901;28;20250;-66
2023/04/13 23:28:12;;;;;;;7.78;4.38;;;;;;;9.21;74.50;99642.06;10234851;28;20047;-67
2023/04/13 23:33:14;;;;;;;10.35;5.55;;;;;;;9.14;74.59;99631.22;10224227;28;20059;-67